Cannelton, West Virginia
Current Conditions -  °F | °C
As of 9:54 PM on Saturday 20 Dec 2014 (Local Time) from KCRW Reporting Station
Overcast Overcast  
Wind Chill: 34°   Ceiling: 5500
Heat Index: 34°   Visibility: 10mi
Dew Point: 25°   Wind: 0mph
Humidity: 70%   Direction: NA
Pressure: 30.26"   Gusts: NA
Location:  38.19°N, 81.3°W
Report Text: KCRW 210254Z 00000KT 10SM SCT035 OVC055 01/M04 A3026 RMK AO2 SLP256 T00111039 53001
Loading
Personal Weather Stations






























Interactive Weather Map New forecast layout! Learn more

10-Day Weather Forecast

Advertisements
Track Severe Weather on mobile